createdAt,value
2019-04-24T00:02:22.136Z,13.37
2019-04-24T00:05:01.870Z,12.50
2019-04-24T00:09:38.315Z,11.30
2019-04-24T00:17:20.507Z,10.80
2019-04-24T00:20:09.726Z,10.60
2019-04-24T00:22:30.483Z,12.20
2019-04-24T00:25:12.159Z,13.57
2019-04-24T00:27:30.975Z,13.57
2019-04-24T00:30:15.554Z,14.37
2019-04-24T00:32:44.164Z,14.13
2019-04-24T00:35:17.652Z,13.03
2019-04-24T00:37:49.999Z,9.50
2019-04-24T00:40:09.688Z,10.63
2019-04-24T00:42:59.279Z,12.63
2019-04-24T00:45:29.382Z,14.27
2019-04-24T00:50:23.611Z,11.00
2019-04-24T00:53:32.249Z,9.53
2019-04-24T00:55:35.802Z,13.57
2019-04-24T00:58:05.433Z,14.00
2019-04-24T01:06:04.873Z,10.07
2019-04-24T01:08:28.479Z,11.27
2019-04-24T01:11:09.957Z,11.03
2019-04-24T01:13:41.627Z,11.40
2019-04-24T01:16:27.558Z,12.73
2019-04-24T01:18:41.025Z,9.20
2019-04-24T01:23:53.930Z,16.07
2019-04-24T01:26:27.246Z,9.80
2019-04-24T01:29:08.778Z,14.90
2019-04-24T01:34:21.278Z,9.57
2019-04-24T01:36:50.941Z,11.93
2019-04-24T01:39:40.974Z,14.73
2019-04-24T01:42:20.983Z,10.87
2019-04-24T01:44:37.186Z,16.10
2019-04-24T01:47:14.649Z,10.57
2019-04-24T01:49:46.202Z,11.97
2019-04-24T01:54:49.038Z,11.63
2019-04-24T01:57:36.543Z,9.97
2019-04-24T01:59:51.037Z,13.90
2019-04-24T02:02:27.154Z,14.93
2019-04-24T02:05:02.965Z,10.00
2019-04-24T02:07:46.857Z,11.00
2019-04-24T02:18:00.448Z,14.37
2019-04-24T02:20:39.867Z,17.23
2019-04-24T02:23:06.662Z,10.00
2019-04-24T02:28:26.003Z,14.30
2019-04-24T02:39:22.259Z,12.90
2019-04-24T02:51:55.790Z,12.67
2019-04-24T02:54:48.771Z,15.13
2019-04-24T02:57:10.096Z,13.37
2019-04-24T02:59:30.708Z,16.47
2019-04-24T03:10:12.284Z,15.67
2019-04-24T03:15:29.105Z,10.97
2019-04-24T03:17:44.076Z,14.47
2019-04-24T03:20:45.652Z,14.57
2019-04-24T03:28:17.290Z,15.77
2019-04-24T03:38:56.206Z,22.47
2019-04-24T03:46:23.207Z,12.77
2019-04-24T03:48:56.897Z,15.93
2019-04-24T03:54:11.933Z,16.30
2019-04-24T03:59:10.371Z,12.70
2019-04-24T04:02:10.389Z,12.70
2019-04-24T04:09:30.229Z,14.30
2019-04-24T04:12:10.240Z,13.17
2019-04-24T04:14:37.076Z,13.07
2019-04-24T04:27:31.396Z,20.17
2019-04-24T04:30:15.673Z,15.03
2019-04-24T04:33:08.029Z,17.90
2019-04-24T04:35:59.454Z,14.17
2019-04-24T04:43:44.409Z,12.90
2019-04-24T04:46:16.063Z,16.83
2019-04-24T04:48:47.156Z,12.67
2019-04-24T04:51:19.724Z,12.87
2019-04-24T04:53:53.993Z,13.53
2019-04-24T04:56:31.641Z,12.57
2019-04-24T05:01:40.709Z,12.37
2019-04-24T05:04:19.749Z,10.67
2019-04-24T05:07:09.301Z,12.20
2019-04-24T05:16:56.430Z,13.07
2019-04-24T05:19:27.895Z,11.40
2019-04-24T05:22:02.171Z,15.43
2019-04-24T05:24:25.559Z,13.37
2019-04-24T05:27:17.265Z,14.60
2019-04-24T05:29:51.295Z,13.20
2019-04-24T05:32:45.591Z,14.27
2019-04-24T05:40:12.885Z,11.40
2019-04-24T05:45:17.027Z,12.60
2019-04-24T05:47:52.054Z,15.87
2019-04-24T05:50:50.135Z,17.03
2019-04-24T05:53:16.973Z,13.80
2019-04-24T05:55:58.020Z,12.57
2019-04-24T06:01:10.746Z,11.63
2019-04-24T06:04:13.673Z,15.43
2019-04-24T06:06:56.544Z,12.73
2019-04-24T06:09:21.737Z,13.00
2019-04-24T06:14:45.349Z,17.63
2019-04-24T06:17:31.303Z,12.77
2019-04-24T06:20:01.832Z,12.70
2019-04-24T06:22:38.769Z,12.80
2019-04-24T06:24:56.632Z,13.97
2019-04-24T06:30:03.468Z,12.03
2019-04-24T06:32:40.709Z,15.80
2019-04-24T06:37:55.697Z,14.23
2019-04-24T06:48:29.829Z,8.77
2019-04-24T06:53:19.414Z,9.30
2019-04-24T07:01:20.953Z,13.27
2019-04-24T07:12:00.610Z,11.60
2019-04-24T07:14:10.015Z,13.97
2019-04-24T07:17:20.217Z,12.70
2019-04-24T07:27:38.318Z,13.70
2019-04-24T07:29:53.046Z,14.53
2019-04-24T07:32:53.480Z,9.87
2019-04-24T07:35:32.886Z,10.63
2019-04-24T07:38:15.505Z,12.00
2019-04-24T07:40:46.756Z,9.77
2019-04-24T07:43:19.195Z,10.73
2019-04-24T07:45:50.919Z,8.77
2019-04-24T07:48:15.666Z,15.27
2019-04-24T07:53:45.987Z,13.97
2019-04-24T07:56:20.996Z,12.60
2019-04-24T08:01:45.886Z,12.43
2019-04-24T08:04:18.873Z,12.97
2019-04-24T08:06:49.691Z,11.53
2019-04-24T08:09:56.226Z,12.57
2019-04-24T08:12:07.557Z,15.07
2019-04-24T08:15:04.827Z,15.77
2019-04-24T08:17:17.506Z,9.90
2019-04-24T08:22:28.781Z,13.63
2019-04-24T08:45:59.101Z,10.33
2019-04-24T08:49:01.654Z,12.30
2019-04-24T08:56:20.315Z,11.73
2019-04-24T08:58:57.608Z,10.20
2019-04-24T09:06:36.150Z,12.53
2019-04-24T09:09:23.580Z,11.23
2019-04-24T09:12:18.957Z,14.40
2019-04-24T09:14:41.009Z,18.77
2019-04-24T09:17:40.004Z,9.47
2019-04-24T09:20:01.904Z,10.43
2019-04-24T09:22:29.802Z,17.03
2019-04-24T09:25:18.112Z,18.93
2019-04-24T09:27:45.428Z,14.23
2019-04-24T09:30:25.665Z,12.27
2019-04-24T09:33:10.004Z,13.40
2019-04-24T09:36:00.369Z,13.63
2019-04-24T09:38:12.206Z,10.83
2019-04-24T09:41:08.994Z,12.60
2019-04-24T09:48:46.950Z,9.40
2019-04-24T09:51:07.904Z,16.57
2019-04-24T09:56:44.103Z,8.60
2019-04-24T09:59:06.318Z,11.83
2019-04-24T10:01:48.219Z,10.60
2019-04-24T10:07:05.860Z,14.07
2019-04-24T10:09:15.464Z,12.27
2019-04-24T10:12:12.573Z,8.43
2019-04-24T10:14:40.840Z,12.77
2019-04-24T10:20:03.938Z,10.90
2019-04-24T10:22:30.025Z,13.70
2019-04-24T10:24:59.710Z,11.13
2019-04-24T10:27:31.952Z,12.07
2019-04-24T10:32:46.442Z,17.40
2019-04-24T10:43:10.589Z,11.43
2019-04-24T10:45:47.694Z,13.70
2019-04-24T10:48:40.565Z,8.60
2019-04-24T10:51:43.178Z,9.27
2019-04-24T10:53:49.510Z,11.67
2019-04-24T10:56:26.083Z,9.57
2019-04-24T11:10:15.439Z,9.37
2019-04-24T11:12:43.349Z,10.10
2019-04-24T11:15:36.318Z,7.60
2019-04-24T11:18:00.091Z,5.67
2019-04-24T11:20:42.595Z,7.97
2019-04-24T11:23:16.956Z,7.87
2019-04-24T11:28:36.444Z,9.27
2019-04-24T11:31:04.985Z,13.67
2019-04-24T11:33:55.558Z,10.03
2019-04-24T11:36:35.168Z,7.80
2019-04-24T11:39:09.568Z,10.57
2019-04-24T11:44:12.262Z,7.80
2019-04-24T11:49:55.282Z,5.93
2019-04-24T11:52:57.190Z,11.57
2019-04-24T11:55:15.130Z,5.83
2019-04-24T11:58:07.834Z,13.17
2019-04-24T12:00:04.680Z,10.53
2019-04-24T12:05:32.859Z,5.53
2019-04-24T12:08:06.887Z,7.60
2019-04-24T12:13:20.418Z,8.03
2019-04-24T12:15:58.324Z,8.97
2019-04-24T12:23:46.978Z,10.50
2019-04-24T12:28:59.293Z,7.90
2019-04-24T12:31:32.895Z,5.80
2019-04-24T12:34:10.040Z,8.00
2019-04-24T12:36:55.560Z,9.73
2019-04-24T12:39:08.327Z,6.80
2019-04-24T12:41:51.335Z,7.67
2019-04-24T12:44:30.427Z,8.63
2019-04-24T12:47:10.317Z,10.37
2019-04-24T12:49:49.734Z,7.03
2019-04-24T12:52:07.782Z,9.17
2019-04-24T12:54:46.283Z,6.67
2019-04-24T12:57:51.117Z,6.37
2019-04-24T13:00:24.428Z,10.30
2019-04-24T13:08:49.663Z,9.17
2019-04-24T13:11:03.938Z,7.43
2019-04-24T13:13:33.597Z,8.23
2019-04-24T13:15:59.585Z,10.33
2019-04-24T13:18:50.945Z,5.97
2019-04-24T13:20:41.163Z,7.60
2019-04-24T13:23:17.980Z,11.03
2019-04-24T13:26:23.038Z,6.00
2019-04-24T13:29:08.282Z,9.97
2019-04-24T13:31:49.219Z,6.43
2019-04-24T13:34:12.337Z,7.10
2019-04-24T13:36:59.150Z,7.03
2019-04-24T13:39:17.036Z,8.87
2019-04-24T13:44:28.802Z,6.83
2019-04-24T13:47:00.375Z,6.70
2019-04-24T13:49:30.533Z,9.40
2019-04-24T13:54:31.820Z,7.23
2019-04-24T13:57:11.106Z,9.07
2019-04-24T13:59:52.595Z,9.83
2019-04-24T14:02:37.812Z,10.90
2019-04-24T14:04:47.695Z,7.73
2019-04-24T14:07:24.693Z,5.70
2019-04-24T14:17:31.044Z,7.67
2019-04-24T14:20:17.131Z,7.87
2019-04-24T14:22:55.962Z,6.07
2019-04-24T14:28:05.879Z,8.33
2019-04-24T14:30:34.093Z,8.63
2019-04-24T14:35:36.236Z,6.93
2019-04-24T14:38:12.281Z,6.13
2019-04-24T14:40:40.798Z,6.07
2019-04-24T14:43:26.513Z,6.23
2019-04-24T14:45:54.414Z,7.27
2019-04-24T14:48:16.272Z,6.73
2019-04-24T14:50:39.690Z,5.97
2019-04-24T14:53:23.950Z,12.60
2019-04-24T14:55:52.488Z,7.57
2019-04-24T14:58:19.324Z,5.90
2019-04-24T15:01:09.541Z,7.63
2019-04-24T15:03:24.843Z,7.63
2019-04-24T15:06:08.055Z,6.93
2019-04-24T15:08:40.300Z,6.60
2019-04-24T15:13:57.234Z,8.90
2019-04-24T15:18:59.714Z,10.60
2019-04-24T15:21:23.509Z,5.20
2019-04-24T15:26:25.053Z,9.43
2019-04-24T15:29:11.170Z,8.07
2019-04-24T15:31:28.927Z,7.40
2019-04-24T15:34:06.918Z,10.30
2019-04-24T15:36:38.569Z,6.77
2019-04-24T15:39:15.418Z,9.20
2019-04-24T15:44:12.503Z,8.60
2019-04-24T15:47:00.917Z,7.87
2019-04-24T15:49:18.038Z,8.40
2019-04-24T15:51:31.273Z,7.17
2019-04-24T15:53:55.897Z,9.27
2019-04-24T15:56:26.113Z,7.93
2019-04-24T15:59:07.435Z,6.17
2019-04-24T16:02:04.438Z,7.40
2019-04-24T16:04:35.397Z,8.07
2019-04-24T16:06:43.213Z,7.47
2019-04-24T16:09:26.469Z,11.13
2019-04-24T16:11:58.658Z,11.80
2019-04-24T16:14:56.580Z,6.63
2019-04-24T16:20:07.776Z,6.63
2019-04-24T16:25:10.855Z,9.07
2019-04-24T16:27:53.131Z,7.73
2019-04-24T16:30:09.476Z,8.77
2019-04-24T16:33:00.694Z,8.77
2019-04-24T16:35:24.904Z,8.93
2019-04-24T16:38:00.365Z,10.10
2019-04-24T16:43:19.483Z,6.77
2019-04-24T16:45:53.923Z,9.97
2019-04-24T16:50:55.017Z,9.93
2019-04-24T16:53:32.910Z,5.90
2019-04-24T17:04:07.569Z,6.83
2019-04-24T17:11:18.870Z,9.50
2019-04-24T17:13:48.429Z,10.83
2019-04-24T17:16:32.645Z,5.87
2019-04-24T17:19:24.329Z,7.83
2019-04-24T17:24:05.643Z,7.27
2019-04-24T17:27:04.272Z,8.17
2019-04-24T17:31:43.289Z,7.23
2019-04-24T17:34:22.468Z,5.53
2019-04-24T17:36:30.534Z,6.60
2019-04-24T17:38:58.326Z,9.60
2019-04-24T17:41:35.128Z,56.40
2019-04-24T17:44:44.840Z,40.67
2019-04-24T17:47:12.931Z,33.20
2019-04-24T17:49:38.698Z,13.77
2019-04-24T17:52:29.027Z,15.57
2019-04-24T17:54:37.099Z,8.07
2019-04-24T17:57:13.062Z,7.30
2019-04-24T17:59:19.354Z,9.40
2019-04-24T18:01:50.378Z,7.57
2019-04-24T18:04:22.357Z,7.57
2019-04-24T18:06:53.467Z,8.33
2019-04-24T18:09:27.405Z,10.77
2019-04-24T18:11:58.045Z,13.73
2019-04-24T18:14:27.945Z,5.80
2019-04-24T18:16:58.008Z,5.80
2019-04-24T18:19:29.146Z,6.17
2019-04-24T18:21:59.297Z,5.50
2019-04-24T18:24:33.627Z,5.93
2019-04-24T18:27:04.985Z,4.10
2019-04-24T18:29:35.690Z,3.17
2019-04-24T18:32:06.465Z,4.10
2019-04-24T18:34:37.467Z,5.37
2019-04-24T18:37:08.778Z,3.17
2019-04-24T18:39:38.680Z,2.60
2019-04-24T18:42:09.388Z,4.80
2019-04-24T18:44:42.246Z,3.90
2019-04-24T18:47:15.887Z,5.43
2019-04-24T18:49:47.002Z,3.83
2019-04-24T18:52:21.993Z,4.30
2019-04-24T18:54:52.837Z,2.57
2019-04-24T18:57:23.821Z,4.07
2019-04-24T18:59:53.728Z,3.27
2019-04-24T19:02:22.996Z,3.13
2019-04-24T19:04:54.029Z,3.47
2019-04-24T19:07:24.080Z,5.60
2019-04-24T19:09:55.042Z,2.40
2019-04-24T19:12:25.994Z,2.87
2019-04-24T19:14:56.640Z,1.57
2019-04-24T19:17:26.241Z,2.13
2019-04-24T19:19:57.375Z,2.60
2019-04-24T19:22:31.465Z,2.10
2019-04-24T19:25:02.673Z,3.70
2019-04-24T19:27:33.442Z,1.77
2019-04-24T19:30:05.587Z,2.03
2019-04-24T19:32:36.606Z,2.50
2019-04-24T19:35:08.089Z,3.40
2019-04-24T19:37:39.200Z,1.70
2019-04-24T19:40:25.662Z,2.70
2019-04-24T19:42:43.694Z,4.90
2019-04-24T19:45:13.973Z,5.50
2019-04-24T19:47:44.099Z,2.87
2019-04-24T19:50:15.758Z,3.83
2019-04-24T19:52:47.066Z,5.87
2019-04-24T19:55:18.334Z,4.73
2019-04-24T19:57:49.349Z,6.23
2019-04-24T20:00:22.462Z,3.50
2019-04-24T20:02:52.766Z,3.33
2019-04-24T20:05:23.634Z,5.57
2019-04-24T20:07:54.454Z,2.23
2019-04-24T20:10:26.164Z,4.03
2019-04-24T20:12:57.956Z,2.67
2019-04-24T20:15:28.059Z,3.13
2019-04-24T20:17:59.829Z,3.70
2019-04-24T20:20:30.217Z,4.23
2019-04-24T20:23:02.033Z,3.93
2019-04-24T20:25:32.573Z,4.53
2019-04-24T20:28:03.440Z,2.53
2019-04-24T20:30:34.425Z,3.23
2019-04-24T20:33:04.641Z,2.00
2019-04-24T20:35:34.833Z,2.40
2019-04-24T20:38:06.356Z,3.07
2019-04-24T20:40:39.045Z,3.17
2019-04-24T20:43:09.847Z,3.67
2019-04-24T20:45:42.281Z,2.13
2019-04-24T20:48:13.747Z,2.00
2019-04-24T20:50:43.950Z,2.63
2019-04-24T20:53:15.110Z,2.30
2019-04-24T20:55:47.082Z,3.80
2019-04-24T20:58:20.265Z,2.63
2019-04-24T21:00:51.129Z,3.10
2019-04-24T21:03:23.417Z,3.50
2019-04-24T21:06:05.419Z,2.17
2019-04-24T21:08:36.882Z,3.50
2019-04-24T21:11:09.673Z,3.60
2019-04-24T21:13:41.387Z,3.33
2019-04-24T21:16:12.663Z,2.90
2019-04-24T21:18:42.061Z,3.03
2019-04-24T21:21:11.840Z,3.10
2019-04-24T21:23:53.180Z,3.83
2019-04-24T21:26:14.269Z,2.80
2019-04-24T21:28:45.733Z,2.53
2019-04-24T21:31:16.805Z,3.17
2019-04-24T21:33:47.549Z,2.63
2019-04-24T21:36:22.407Z,2.57
2019-04-24T21:38:53.517Z,3.57
2019-04-24T21:41:25.593Z,5.40
2019-04-24T21:43:56.353Z,2.57
2019-04-24T21:46:26.396Z,2.33
2019-04-24T21:48:57.334Z,2.67
2019-04-24T21:51:28.714Z,3.60
2019-04-24T21:54:04.805Z,2.87
2019-04-24T21:56:34.749Z,2.90
2019-04-24T21:59:04.935Z,2.07
2019-04-24T22:01:47.465Z,2.80
2019-04-24T22:04:20.164Z,1.80
2019-04-24T22:06:52.966Z,2.20
2019-04-24T22:09:25.945Z,2.27
2019-04-24T22:11:56.717Z,3.20
2019-04-24T22:14:28.730Z,3.53
2019-04-24T22:16:59.882Z,2.80
2019-04-24T22:19:29.902Z,2.53
2019-04-24T22:22:06.677Z,2.30
2019-04-24T22:24:41.212Z,3.50
2019-04-24T22:27:19.309Z,3.37
2019-04-24T22:29:49.513Z,2.00
2019-04-24T22:32:27.301Z,1.30
2019-04-24T22:35:01.781Z,2.80
2019-04-24T22:37:33.150Z,1.67
2019-04-24T22:40:06.947Z,2.80
2019-04-24T22:42:37.919Z,2.17
2019-04-24T22:45:09.766Z,2.43
2019-04-24T22:47:42.343Z,1.80
2019-04-24T22:50:12.877Z,1.40
2019-04-24T22:52:42.670Z,1.90
2019-04-24T22:55:16.831Z,2.03
2019-04-24T22:57:47.540Z,1.90
2019-04-24T23:00:22.083Z,1.73
2019-04-24T23:02:53.731Z,1.80
2019-04-24T23:05:24.943Z,1.60
2019-04-24T23:07:56.181Z,2.50
2019-04-24T23:10:34.125Z,1.90
2019-04-24T23:12:59.493Z,4.13
2019-04-24T23:15:29.565Z,3.40
2019-04-24T23:18:00.083Z,2.20
2019-04-24T23:20:47.352Z,2.27
2019-04-24T23:23:36.087Z,2.20
2019-04-24T23:26:13.010Z,3.20
2019-04-24T23:28:52.222Z,2.93
2019-04-24T23:31:33.814Z,3.53
2019-04-24T23:34:06.637Z,2.90
2019-04-24T23:36:37.573Z,3.00
2019-04-24T23:39:11.075Z,3.40
2019-04-24T23:41:41.301Z,2.50
2019-04-24T23:44:14.092Z,2.03
2019-04-24T23:46:44.078Z,1.80
2019-04-24T23:49:14.841Z,2.07
2019-04-24T23:51:45.663Z,2.63
2019-04-24T23:54:16.368Z,3.80
2019-04-24T23:56:47.317Z,3.47
2019-04-24T23:59:18.991Z,5.20
